Time;durP1;ratioP1;P1;durP2;ratioP2;P2;SDS_P1;SDS_P2;PMS_P1;PMS_P2;Temp;Humidity;BMP_temperature;BMP_pressure;BME280_temperature;BME280_humidity;BME280_pressure;Samples;Min_cycle;Max_cycle;Signal;HPM_P1;HPM_P2
2022/12/14 00:02:11;;;;;;;30.50;20.17;;;;;;;;;;5125585;27;20614;-75
2022/12/14 00:04:36;;;;;;;24.65;21.38;;;;;;;;;;5115994;27;20419;-76
2022/12/14 00:07:02;;;;;;;28.80;20.50;;;;;;;;;;5115662;27;20173;-76
2022/12/14 00:09:27;;;;;;;28.93;19.30;;;;;;;;;;5119910;27;20170;-76
2022/12/14 00:11:52;;;;;;;25.83;19.30;;;;;;;;;;5120264;27;20189;-75
2022/12/14 00:14:17;;;;;;;27.13;19.03;;;;;;;;;;5120212;27;20264;-76
2022/12/14 00:16:43;;;;;;;30.73;20.10;;;;;;;;;;5121651;27;20191;-76
2022/12/14 00:19:08;;;;;;;26.97;19.43;;;;;;;;;;5121502;27;20359;-76
2022/12/14 00:21:34;;;;;;;24.60;17.97;;;;;;;;;;5121959;27;20211;-76
2022/12/14 00:23:59;;;;;;;26.53;18.53;;;;;;;;;;5118765;27;20176;-76
2022/12/14 00:26:26;;;;;;;31.90;20.63;;;;;;;;;;5117254;27;20177;-76
2022/12/14 00:28:52;;;;;;;25.97;18.03;;;;;;;;;;5122744;27;20309;-73
2022/12/14 00:31:18;;;;;;;28.43;19.70;;;;;;;;;;5122698;27;20962;-76
2022/12/14 00:33:43;;;;;;;28.57;19.40;;;;;;;;;;5124938;27;20419;-75
2022/12/14 00:36:09;;;;;;;29.30;20.17;;;;;;;;;;5110689;27;20541;-75
2022/12/14 00:38:35;;;;;;;26.90;19.30;;;;;;;;;;5117918;27;20198;-76
2022/12/14 00:41:00;;;;;;;27.47;19.30;;;;;;;;;;5116951;27;20515;-75
2022/12/14 00:43:26;;;;;;;31.50;19.90;;;;;;;;;;5110330;27;20174;-76
2022/12/14 00:45:51;;;;;;;25.10;18.07;;;;;;;;;;5114881;27;20179;-75
2022/12/14 00:48:22;;;;;;;29.77;19.60;;;;;;;;;;5111711;27;20557;-76
2022/12/14 00:50:48;;;;;;;26.60;19.90;;;;;;;;;;5110399;27;20890;-76
2022/12/14 00:53:13;;;;;;;30.27;20.20;;;;;;;;;;5108985;27;20472;-75
2022/12/14 00:55:40;;;;;;;38.90;22.00;;;;;;;;;;5110060;27;20431;-75
2022/12/14 00:58:09;;;;;;;29.60;20.40;;;;;;;;;;5136059;27;20208;-76
2022/12/14 01:00:34;;;;;;;27.20;19.30;;;;;;;;;;5110080;27;21317;-75
2022/12/14 01:03:00;;;;;;;30.50;19.17;;;;;;;;;;5113640;27;20458;-75
2022/12/14 01:05:25;;;;;;;27.67;20.20;;;;;;;;;;5111678;27;20174;-76
2022/12/14 01:07:50;;;;;;;28.53;19.23;;;;;;;;;;5112657;27;20212;-75
2022/12/14 01:10:16;;;;;;;28.93;18.40;;;;;;;;;;5113742;27;20554;-76
2022/12/14 01:12:41;;;;;;;29.40;19.77;;;;;;;;;;5115629;27;20189;-76
2022/12/14 01:15:07;;;;;;;27.40;19.17;;;;;;;;;;5110028;27;20181;-76
2022/12/14 01:17:32;;;;;;;28.80;19.40;;;;;;;;;;5113724;27;20203;-76
2022/12/14 01:19:57;;;;;;;28.93;20.03;;;;;;;;;;5124261;27;20197;-76
2022/12/14 01:22:23;;;;;;;29.63;20.43;;;;;;;;;;5116583;27;20272;-76
2022/12/14 01:24:48;;;;;;;27.20;19.47;;;;;;;;;;5116884;27;20520;-75
2022/12/14 01:27:13;;;;;;;26.73;19.80;;;;;;;;;;5116198;27;20682;-76
2022/12/14 01:29:39;;;;;;;26.77;17.63;;;;;;;;;;5114980;27;20173;-76
2022/12/14 01:32:04;;;;;;;28.30;19.37;;;;;;;;;;5114240;27;20177;-76
2022/12/14 01:34:30;;;;;;;26.57;19.17;;;;;;;;;;5112587;27;20176;-75
2022/12/14 01:36:55;;;;;;;29.30;20.17;;;;;;;;;;5112060;27;20177;-76
2022/12/14 01:39:20;;;;;;;28.70;19.57;;;;;;;;;;5112472;27;20264;-76
2022/12/14 01:41:51;;;;;;;25.10;19.00;;;;;;;;;;5110913;27;20621;-76
2022/12/14 01:44:16;;;;;;;28.10;19.13;;;;;;;;;;5110797;27;20269;-76
2022/12/14 01:47:00;;;;;;;27.23;19.40;;;;;;;;;;5116440;27;20572;-76
2022/12/14 01:49:28;;;;;;;28.43;17.90;;;;;;;;;;5111064;27;20639;-76
2022/12/14 01:52:06;;;;;;;28.67;18.97;;;;;;;;;;5109483;27;20474;-76
2022/12/14 01:54:33;;;;;;;30.40;18.60;;;;;;;;;;5106152;27;20492;-76
2022/12/14 01:56:58;;;;;;;26.87;17.90;;;;;;;;;;5111637;27;20438;-76
2022/12/14 01:59:26;;;;;;;27.50;18.43;;;;;;;;;;5114908;27;20471;-76
2022/12/14 02:01:52;;;;;;;28.77;19.50;;;;;;;;;;5119645;27;20196;-76
2022/12/14 02:04:22;;;;;;;27.97;19.40;;;;;;;;;;5108962;27;20435;-76
2022/12/14 02:06:49;;;;;;;25.42;19.13;;;;;;;;;;5115460;27;20434;-76
2022/12/14 02:09:17;;;;;;;27.13;20.17;;;;;;;;;;5116085;27;20276;-76
2022/12/14 02:11:53;;;;;;;26.87;18.63;;;;;;;;;;5117064;27;20435;-76
2022/12/14 02:14:19;;;;;;;24.10;17.80;;;;;;;;;;5118559;27;20423;-76
2022/12/14 02:16:44;;;;;;;29.73;20.37;;;;;;;;;;5123498;27;20456;-76
2022/12/14 02:19:09;;;;;;;28.30;18.77;;;;;;;;;;5118374;27;20547;-76
2022/12/14 02:21:53;;;;;;;31.87;19.97;;;;;;;;;;5121146;27;20268;-76
2022/12/14 02:24:31;;;;;;;28.50;19.30;;;;;;;;;;5120525;27;20175;-76
2022/12/14 02:26:57;;;;;;;27.70;18.50;;;;;;;;;;5120565;27;20398;-75
2022/12/14 02:29:22;;;;;;;25.83;19.43;;;;;;;;;;5099971;28;20793;-75
2022/12/14 02:32:06;;;;;;;25.50;17.33;;;;;;;;;;5121590;27;20224;-76
2022/12/14 02:34:50;;;;;;;32.63;19.73;;;;;;;;;;5116937;27;20174;-75
2022/12/14 02:37:21;;;;;;;30.30;18.87;;;;;;;;;;5109538;27;20457;-76
2022/12/14 02:39:57;;;;;;;27.90;18.00;;;;;;;;;;5110342;28;20516;-76
2022/12/14 02:42:49;;;;;;;27.93;18.93;;;;;;;;;;5109299;27;21084;-75
2022/12/14 02:45:20;;;;;;;25.83;17.70;;;;;;;;;;5108079;28;21071;-75
2022/12/14 02:48:00;;;;;;;28.13;19.17;;;;;;;;;;5115158;28;20576;-76
2022/12/14 02:50:37;;;;;;;29.10;19.17;;;;;;;;;;5114626;28;20464;-76
2022/12/14 02:53:03;;;;;;;30.57;19.10;;;;;;;;;;5109870;28;20432;-76
2022/12/14 02:55:41;;;;;;;30.10;19.30;;;;;;;;;;5111749;28;20438;-75
2022/12/14 02:58:15;;;;;;;31.30;20.33;;;;;;;;;;5111236;28;20220;-76
2022/12/14 03:00:41;;;;;;;29.53;19.70;;;;;;;;;;5111296;28;20500;-75
2022/12/14 03:03:09;;;;;;;27.80;17.93;;;;;;;;;;5113021;28;20430;-75
2022/12/14 03:05:34;;;;;;;27.83;18.13;;;;;;;;;;5113472;28;20256;-76
2022/12/14 03:08:02;;;;;;;30.40;20.40;;;;;;;;;;5110975;28;21038;-76
2022/12/14 03:10:49;;;;;;;29.60;18.40;;;;;;;;;;5114343;27;20196;-76
2022/12/14 03:13:21;;;;;;;29.03;18.60;;;;;;;;;;5111127;28;20435;-76
2022/12/14 03:15:49;;;;;;;29.40;18.10;;;;;;;;;;5094525;28;20436;-75
2022/12/14 03:18:16;;;;;;;29.93;19.63;;;;;;;;;;5108330;28;20819;-75
2022/12/14 03:20:43;;;;;;;27.93;18.67;;;;;;;;;;5111260;28;20490;-75
2022/12/14 03:23:17;;;;;;;30.93;18.97;;;;;;;;;;5105831;28;21207;-75
2022/12/14 03:25:43;;;;;;;27.27;18.50;;;;;;;;;;5111828;28;20426;-75
2022/12/14 03:28:20;;;;;;;29.50;17.23;;;;;;;;;;5111314;28;20458;-76
2022/12/14 03:30:49;;;;;;;29.63;19.63;;;;;;;;;;5116528;28;20184;-76
2022/12/14 03:33:17;;;;;;;24.67;16.50;;;;;;;;;;5107386;28;20427;-76
2022/12/14 03:35:51;;;;;;;26.63;18.47;;;;;;;;;;5109750;28;20459;-75
2022/12/14 03:38:16;;;;;;;26.50;17.23;;;;;;;;;;5108286;27;21065;-75
2022/12/14 03:41:02;;;;;;;28.97;17.83;;;;;;;;;;5116756;27;20469;-75
2022/12/14 03:43:52;;;;;;;29.33;19.57;;;;;;;;;;5115828;27;20177;-75
2022/12/14 03:46:17;;;;;;;27.30;18.63;;;;;;;;;;5084092;27;20523;-75
2022/12/14 03:48:47;;;;;;;28.77;18.23;;;;;;;;;;5114670;27;20542;-75
2022/12/14 03:51:29;;;;;;;29.50;19.93;;;;;;;;;;5133318;27;20246;-75
2022/12/14 03:53:54;;;;;;;26.60;18.67;;;;;;;;;;5121832;27;20986;-75
2022/12/14 03:56:30;;;;;;;30.93;17.87;;;;;;;;;;5109854;27;20492;-75
2022/12/14 03:59:01;;;;;;;31.43;19.30;;;;;;;;;;5110819;27;20673;-75
2022/12/14 04:01:26;;;;;;;30.33;19.60;;;;;;;;;;5118545;27;20470;-75
2022/12/14 04:08:09;;;;;;;26.50;20.00;;;;;;;;;;5068357;27;20438;-74
2022/12/14 04:19:05;;;;;;;29.30;18.93;;;;;;;;;;5054760;28;20989;-74
2022/12/14 04:21:51;;;;;;;29.33;18.83;;;;;;;;;;5056648;28;20456;-74
2022/12/14 04:27:33;;;;;;;28.40;18.57;;;;;;;;;;5055131;28;20472;-74
2022/12/14 04:30:00;;;;;;;23.43;16.50;;;;;;;;;;5058319;28;20502;-74
2022/12/14 04:32:37;;;;;;;32.03;19.00;;;;;;;;;;5048717;28;20441;-75
2022/12/14 04:35:08;;;;;;;29.10;19.10;;;;;;;;;;5058712;28;20425;-73
2022/12/14 04:37:36;;;;;;;30.50;19.50;;;;;;;;;;5042051;28;21011;-74
2022/12/14 04:40:04;;;;;;;28.17;19.23;;;;;;;;;;5059130;28;20524;-74
2022/12/14 04:42:31;;;;;;;26.83;19.47;;;;;;;;;;5056137;28;20513;-73
2022/12/14 04:45:01;;;;;;;27.23;19.27;;;;;;;;;;5054034;28;20975;-74
2022/12/14 04:47:29;;;;;;;25.95;19.67;;;;;;;;;;5052963;28;20435;-74
2022/12/14 04:50:05;;;;;;;30.37;19.20;;;;;;;;;;5049884;28;20206;-73
2022/12/14 04:52:33;;;;;;;28.50;19.00;;;;;;;;;;5050720;28;20517;-74
2022/12/14 04:55:04;;;;;;;26.40;17.10;;;;;;;;;;5055224;28;20802;-74
2022/12/14 04:57:39;;;;;;;26.67;17.07;;;;;;;;;;5056504;28;20445;-73
2022/12/14 05:00:05;;;;;;;27.07;18.63;;;;;;;;;;5053039;28;20483;-72
2022/12/14 05:02:38;;;;;;;25.47;17.33;;;;;;;;;;5057285;28;20434;-74
2022/12/14 05:05:03;;;;;;;28.03;19.00;;;;;;;;;;5053104;28;20185;-75
2022/12/14 05:07:38;;;;;;;29.93;18.27;;;;;;;;;;5039959;28;20469;-74
2022/12/14 05:10:12;;;;;;;28.70;18.77;;;;;;;;;;5037432;28;20309;-74
2022/12/14 05:12:47;;;;;;;29.83;19.03;;;;;;;;;;5050776;28;20444;-74
2022/12/14 05:15:14;;;;;;;26.00;18.07;;;;;;;;;;5047950;28;20436;-75
2022/12/14 05:17:40;;;;;;;29.83;18.93;;;;;;;;;;5050791;28;20478;-73
2022/12/14 05:20:11;;;;;;;29.97;17.90;;;;;;;;;;5046116;28;20429;-74
2022/12/14 05:22:37;;;;;;;25.53;17.83;;;;;;;;;;5055921;28;20430;-74
2022/12/14 05:25:03;;;;;;;29.17;18.93;;;;;;;;;;5029060;28;20435;-73
2022/12/14 05:27:29;;;;;;;27.07;18.43;;;;;;;;;;5033263;28;20220;-74
2022/12/14 05:29:55;;;;;;;27.10;18.07;;;;;;;;;;5037433;28;20435;-73
2022/12/14 05:32:20;;;;;;;26.17;17.43;;;;;;;;;;5032538;28;20506;-74
2022/12/14 05:34:45;;;;;;;25.60;18.30;;;;;;;;;;5036884;28;20180;-73
2022/12/14 05:39:58;;;;;;;;;;;;;;;;;;;;;
2022/12/14 05:42:27;;;;;;;26.60;20.00;;;;;;;;;;5038391;28;20942;-73
2022/12/14 05:45:06;;;;;;;28.10;19.03;;;;;;;;;;5031505;28;20471;-73
2022/12/14 05:47:34;;;;;;;25.75;19.90;;;;;;;;;;5028983;28;20443;-75
2022/12/14 05:50:00;;;;;;;25.20;19.27;;;;;;;;;;5029586;28;20426;-75
2022/12/14 05:52:26;;;;;;;25.97;17.60;;;;;;;;;;5032536;28;20274;-77
2022/12/14 05:54:51;;;;;;;29.03;17.97;;;;;;;;;;5041579;28;20183;-75
2022/12/14 05:57:16;;;;;;;29.60;17.20;;;;;;;;;;5030725;28;20623;-75
2022/12/14 05:59:42;;;;;;;26.30;17.20;;;;;;;;;;5033888;28;20172;-74
2022/12/14 06:02:07;;;;;;;29.63;18.60;;;;;;;;;;5036341;28;20176;-74
2022/12/14 06:04:33;;;;;;;29.90;18.17;;;;;;;;;;5026211;28;20184;-75
2022/12/14 06:06:58;;;;;;;26.77;18.50;;;;;;;;;;5033025;28;20653;-73
2022/12/14 06:09:27;;;;;;;30.47;18.13;;;;;;;;;;5032155;28;20345;-73
2022/12/14 06:11:52;;;;;;;25.37;16.60;;;;;;;;;;5033063;28;20173;-73
2022/12/14 06:14:18;;;;;;;26.93;16.57;;;;;;;;;;5023463;28;20435;-73
2022/12/14 06:16:46;;;;;;;30.93;18.83;;;;;;;;;;5030099;28;20181;-74
2022/12/14 06:19:12;;;;;;;28.37;16.60;;;;;;;;;;5040606;28;20203;-74
2022/12/14 06:21:39;;;;;;;26.90;17.00;;;;;;;;;;5040372;28;20423;-74
2022/12/14 06:24:05;;;;;;;27.57;17.83;;;;;;;;;;5034599;28;20511;-74
2022/12/14 06:26:32;;;;;;;27.77;17.20;;;;;;;;;;5034459;28;20422;-76
2022/12/14 06:28:58;;;;;;;32.23;18.57;;;;;;;;;;5038571;28;20501;-75
2022/12/14 06:31:24;;;;;;;25.03;16.40;;;;;;;;;;5034076;28;20431;-74
2022/12/14 06:33:50;;;;;;;29.30;18.60;;;;;;;;;;5034532;28;20724;-74
2022/12/14 06:36:16;;;;;;;26.47;17.80;;;;;;;;;;5032759;28;20458;-74
2022/12/14 06:47:48;;;;;;;31.27;19.40;;;;;;;;;;5064903;27;1401129;-76
2022/12/14 06:50:15;;;;;;;27.30;17.10;;;;;;;;;;5105182;28;20440;-74
2022/12/14 06:55:45;;;;;;;28.60;18.83;;;;;;;;;;5077739;27;1469493;-74
2022/12/14 06:58:11;;;;;;;24.80;19.17;;;;;;;;;;5095752;28;20417;-74
2022/12/14 07:13:48;;;;;;;26.75;17.65;;;;;;;;;;6291084;22;1382398;-75
2022/12/14 07:16:27;;;;;;;;;;;;;;;;;;;;;
2022/12/14 07:19:06;;;;;;;25.20;18.83;;;;;;;;;;6350891;22;20395;-74
2022/12/14 07:22:05;;;;;;;;;;;;;;;;;;;;;
2022/12/14 07:24:21;;;;;;;22.08;17.15;;;;;;;;;;6334901;22;20945;-76
2022/12/14 07:26:51;;;;;;;24.80;17.57;;;;;;;;;;6345961;22;20163;-73
2022/12/14 07:29:25;;;;;;;25.27;18.80;;;;;;;;;;6318136;22;20870;-81
2022/12/14 07:32:00;;;;;;;;;;;;;;;;;;;;;
2022/12/14 07:34:28;;;;;;;25.90;17.65;;;;;;;;;;6348827;22;20430;-80
2022/12/14 07:37:03;;;;;;;23.83;16.70;;;;;;;;;;6317984;22;20176;-74
2022/12/14 07:39:28;;;;;;;24.98;18.52;;;;;;;;;;6348031;22;20401;-77
2022/12/14 07:42:16;;;;;;;30.67;18.63;;;;;;;;;;6346051;22;20612;-74
2022/12/14 07:44:54;;;;;;;;;;;;;;;;;;;;;
2022/12/14 07:50:13;;;;;;;23.63;18.20;;;;;;;;;;6276204;22;20374;-79
2022/12/14 07:52:43;;;;;;;24.02;17.70;;;;;;;;;;6335036;22;20362;-80
2022/12/14 07:55:29;;;;;;;;;;;;;;;;;;;;;
2022/12/14 07:57:55;;;;;;;24.27;18.17;;;;;;;;;;6343013;22;20450;-79
2022/12/14 08:00:31;;;;;;;23.80;17.73;;;;;;;;;;6342808;22;20164;-77
2022/12/14 08:02:59;;;;;;;23.45;17.20;;;;;;;;;;6318134;22;20386;-80
2022/12/14 08:05:57;;;;;;;25.70;16.67;;;;;;;;;;6317688;22;20773;-73
2022/12/14 08:08:24;;;;;;;22.77;17.75;;;;;;;;;;6342784;22;20937;-82
2022/12/14 08:14:13;;;;;;;26.33;16.20;;;;;;;;;;5100607;27;20547;-75
2022/12/14 08:16:41;;;;;;;34.03;22.10;;;;;;;;;;5090762;28;20425;-81
2022/12/14 08:19:06;;;;;;;60.03;33.93;;;;;;;;;;5088071;28;20209;-76
2022/12/14 08:21:31;;;;;;;53.37;30.57;;;;;;;;;;5087596;28;20448;-74
2022/12/14 08:23:57;;;;;;;33.20;20.70;;;;;;;;;;5091252;28;20200;-76
2022/12/14 08:26:24;;;;;;;32.80;19.70;;;;;;;;;;5086731;28;20250;-74
2022/12/14 08:28:49;;;;;;;26.80;16.00;;;;;;;;;;5085138;28;20444;-75
2022/12/14 08:31:16;;;;;;;23.60;15.73;;;;;;;;;;5082428;28;20424;-75
2022/12/14 08:33:42;;;;;;;26.40;16.20;;;;;;;;;;5091773;28;20239;-74
2022/12/14 08:36:08;;;;;;;25.27;17.20;;;;;;;;;;5091625;28;20408;-74
2022/12/14 08:38:34;;;;;;;29.97;18.00;;;;;;;;;;5090952;28;20228;-75
2022/12/14 08:41:07;;;;;;;28.07;17.37;;;;;;;;;;5089117;28;20993;-75
2022/12/14 08:43:33;;;;;;;25.67;16.70;;;;;;;;;;5091264;28;20182;-75
2022/12/14 08:45:58;;;;;;;25.97;16.93;;;;;;;;;;5104690;28;20420;-73
2022/12/14 08:48:24;;;;;;;24.00;16.00;;;;;;;;;;5089511;28;20206;-75
2022/12/14 08:50:49;;;;;;;23.80;15.80;;;;;;;;;;5091101;28;20190;-75
2022/12/14 08:53:15;;;;;;;28.73;17.70;;;;;;;;;;5087611;28;20208;-75
2022/12/14 08:55:40;;;;;;;25.10;16.03;;;;;;;;;;5091681;28;20166;-76
2022/12/14 08:58:06;;;;;;;27.67;16.80;;;;;;;;;;5089176;28;20256;-74
2022/12/14 09:00:31;;;;;;;29.47;17.70;;;;;;;;;;5090779;28;20224;-73
2022/12/14 09:02:56;;;;;;;22.60;15.40;;;;;;;;;;5088684;28;20229;-75
2022/12/14 09:05:24;;;;;;;25.50;15.17;;;;;;;;;;5090233;28;20217;-74
2022/12/14 09:07:50;;;;;;;27.33;17.27;;;;;;;;;;5081794;28;20203;-74
2022/12/14 09:10:15;;;;;;;23.27;15.93;;;;;;;;;;5088997;28;20424;-75
2022/12/14 09:12:40;;;;;;;24.60;16.43;;;;;;;;;;5089737;28;20232;-74
2022/12/14 09:15:06;;;;;;;27.27;16.60;;;;;;;;;;5087804;28;20255;-74
2022/12/14 09:17:33;;;;;;;29.20;17.97;;;;;;;;;;5089807;28;20190;-76
2022/12/14 09:19:58;;;;;;;23.90;16.63;;;;;;;;;;5088428;28;20257;-75
2022/12/14 09:22:23;;;;;;;26.20;17.30;;;;;;;;;;5089706;28;20636;-75
2022/12/14 09:24:50;;;;;;;23.83;16.27;;;;;;;;;;5077814;28;20171;-76
2022/12/14 09:40:31;;;;;;;22.50;15.40;;;;;;;;;;6144221;22;1346563;-75
2022/12/14 09:43:22;;;;;;;;;;;;;;;;;;;;;
2022/12/14 09:45:51;;;;;;;23.13;17.02;;;;;;;;;;6189864;23;20465;-73
2022/12/14 09:48:19;;;;;;;25.63;16.77;;;;;;;;;;6149822;23;20226;-74
2022/12/14 09:53:58;;;;;;;23.17;17.05;;;;;;;;;;6139122;23;20748;-75
2022/12/14 09:56:35;;;;;;;;;;;;;;;;;;;;;
2022/12/14 09:59:02;;;;;;;22.33;16.17;;;;;;;;;;6160966;23;20478;-76
2022/12/14 10:01:33;;;;;;;23.50;16.10;;;;;;;;;;6167348;23;20216;-77
2022/12/14 10:04:22;;;;;;;30.92;15.63;;;;;;;;;;6128891;22;20403;-75
2022/12/14 10:07:23;;;;;;;22.50;15.13;;;;;;;;;;6202427;23;20526;-75
2022/12/14 10:10:31;;;;;;;23.97;15.37;;;;;;;;;;6103426;23;20392;-74
2022/12/14 10:13:03;;;;;;;18.20;14.38;;;;;;;;;;6217229;23;20369;-74
2022/12/14 10:15:37;;;;;;;20.57;14.20;;;;;;;;;;6190760;23;20164;-74
2022/12/14 10:18:23;;;;;;;17.53;12.17;;;;;;;;;;6188239;23;20401;-74
2022/12/14 10:21:01;;;;;;;19.17;14.90;;;;;;;;;;6187376;23;20394;-74
2022/12/14 10:23:29;;;;;;;19.10;12.70;;;;;;;;;;6188716;23;20371;-74
2022/12/14 10:25:59;;;;;;;21.53;14.47;;;;;;;;;;6190328;23;20524;-74
2022/12/14 10:28:37;;;;;;;19.83;14.45;;;;;;;;;;6185636;23;20401;-74
2022/12/14 10:31:08;;;;;;;16.67;12.50;;;;;;;;;;6185091;23;20406;-74
2022/12/14 10:33:33;;;;;;;18.02;14.25;;;;;;;;;;6185820;23;20363;-75
2022/12/14 10:36:07;;;;;;;18.30;13.20;;;;;;;;;;6189232;23;20194;-74
2022/12/14 10:38:56;;;;;;;;;;;;;;;;;;;;;
2022/12/14 10:52:11;;;;;;;17.83;12.90;;;;;;;;;;6192332;22;1444092;-74
2022/12/14 10:54:45;;;;;;;17.90;12.10;;;;;;;;;;6249900;22;20139;-73
2022/12/14 10:57:25;;;;;;;15.93;10.83;;;;;;;;;;6248302;22;20367;-73
2022/12/14 10:59:50;;;;;;;17.07;10.70;;;;;;;;;;6218958;23;20425;-74
2022/12/14 11:02:20;;;;;;;15.20;10.70;;;;;;;;;;6220664;23;20367;-73
2022/12/14 11:05:08;;;;;;;16.73;11.07;;;;;;;;;;6219394;23;20203;-74
2022/12/14 11:07:38;;;;;;;16.73;11.10;;;;;;;;;;6206376;23;20409;-73
2022/12/14 11:10:22;;;;;;;15.23;11.23;;;;;;;;;;6218508;23;20417;-73
2022/12/14 11:13:06;;;;;;;16.10;10.30;;;;;;;;;;6218779;23;20429;-74
2022/12/14 11:15:32;;;;;;;14.73;9.90;;;;;;;;;;6215191;23;20849;-73
2022/12/14 11:18:20;;;;;;;16.60;11.60;;;;;;;;;;6218459;23;20382;-73
2022/12/14 11:20:53;;;;;;;14.83;9.90;;;;;;;;;;6205761;23;20383;-74
2022/12/14 11:23:20;;;;;;;14.50;9.30;;;;;;;;;;6219187;23;20718;-73
2022/12/14 11:25:47;;;;;;;17.17;10.83;;;;;;;;;;6218068;23;20378;-74
2022/12/14 11:28:31;;;;;;;16.60;9.73;;;;;;;;;;6218361;23;20386;-74
2022/12/14 11:31:01;;;;;;;12.70;9.27;;;;;;;;;;6218545;23;20418;-73
2022/12/14 11:33:47;;;;;;;13.37;9.20;;;;;;;;;;6219118;23;20370;-73
2022/12/14 11:36:27;;;;;;;14.07;10.00;;;;;;;;;;6216330;23;20448;-73
2022/12/14 11:38:56;;;;;;;13.37;9.20;;;;;;;;;;6219090;23;20378;-74
2022/12/14 11:41:24;;;;;;;15.63;9.73;;;;;;;;;;6220444;23;20688;-74
2022/12/14 11:43:59;;;;;;;14.70;9.70;;;;;;;;;;6221860;23;20430;-74
2022/12/14 11:46:49;;;;;;;13.73;10.50;;;;;;;;;;6218083;23;20374;-76
2022/12/14 11:49:24;;;;;;;15.30;9.30;;;;;;;;;;6218342;23;20406;-75
2022/12/14 11:54:47;;;;;;;14.10;10.68;;;;;;;;;;6117957;23;20439;-76
2022/12/14 11:57:12;;;;;;;16.67;10.90;;;;;;;;;;6223775;22;20158;-75
2022/12/14 12:02:39;;;;;;;16.90;11.98;;;;;;;;;;6118705;23;20421;-75
2022/12/14 12:05:23;;;;;;;16.43;11.20;;;;;;;;;;6201809;23;20158;-74
2022/12/14 12:11:03;;;;;;;14.13;11.80;;;;;;;;;;6118241;23;20437;-74
2022/12/14 12:13:44;;;;;;;13.17;10.30;;;;;;;;;;6228640;23;20367;-75
2022/12/14 12:19:34;;;;;;;14.40;11.40;;;;;;;;;;6220910;23;20383;-75
2022/12/14 12:22:04;;;;;;;17.67;12.63;;;;;;;;;;6213198;23;20473;-74
2022/12/14 12:25:12;;;;;;;;;;;;;;;;;;;;;
2022/12/14 12:27:40;;;;;;;15.95;12.10;;;;;;;;;;6088123;23;20463;-75
2022/12/14 12:30:14;;;;;;;15.73;11.23;;;;;;;;;;6123458;23;20206;-75
2022/12/14 12:33:34;;;;;;;;;;;;;;;;;;;;;
2022/12/14 12:35:55;;;;;;;15.07;11.48;;;;;;;;;;6084493;23;20430;-75
2022/12/14 12:38:32;;;;;;;19.10;12.17;;;;;;;;;;6113962;23;20177;-75
2022/12/14 12:41:08;;;;;;;17.20;9.80;;;;;;;;;;6214129;23;20424;-75
2022/12/14 12:43:49;;;;;;;;;;;;;;;;;;;;;
2022/12/14 12:46:53;;;;;;;14.17;10.83;;;;;;;;;;5047544;27;1369948;-74
2022/12/14 12:49:39;;;;;;;15.40;9.70;;;;;;;;;;5071593;28;20438;-74
2022/12/14 12:52:06;;;;;;;14.82;10.18;;;;;;;;;;5054771;28;20414;-74
2022/12/14 12:54:31;;;;;;;13.90;9.90;;;;;;;;;;5067238;28;20207;-75
2022/12/14 12:57:02;;;;;;;12.87;9.17;;;;;;;;;;5071903;28;20419;-74
2022/12/14 12:59:32;;;;;;;12.83;9.00;;;;;;;;;;5068930;28;20167;-74
2022/12/14 13:02:03;;;;;;;14.53;8.97;;;;;;;;;;5055814;28;20421;-75
2022/12/14 13:04:34;;;;;;;13.00;8.53;;;;;;;;;;5067550;28;20445;-74
2022/12/14 13:07:07;;;;;;;16.30;9.53;;;;;;;;;;5070333;28;20412;-74
2022/12/14 13:12:34;;;;;;;13.77;9.70;;;;;;;;;;5137972;27;20535;-74
2022/12/14 13:28:33;;;;;;;13.93;9.70;;;;;;;;;;6154505;22;1339393;-74
2022/12/14 13:31:19;;;;;;;13.83;10.27;;;;;;;;;;6190435;23;20152;-74
2022/12/14 13:34:08;;;;;;;15.20;10.47;;;;;;;;;;6190280;23;20359;-74
2022/12/14 13:36:53;;;;;;;14.20;11.00;;;;;;;;;;6162455;23;20696;-74
2022/12/14 13:39:24;;;;;;;14.50;9.80;;;;;;;;;;6188704;23;20653;-74
2022/12/14 13:41:57;;;;;;;13.90;9.87;;;;;;;;;;6190530;23;20368;-74
2022/12/14 13:44:26;;;;;;;13.00;9.30;;;;;;;;;;6163759;23;20843;-74
2022/12/14 13:46:59;;;;;;;15.60;10.90;;;;;;;;;;6190154;23;20410;-74
2022/12/14 13:49:25;;;;;;;15.03;10.20;;;;;;;;;;6162985;23;20386;-73
2022/12/14 13:51:50;;;;;;;13.40;10.20;;;;;;;;;;6189655;23;20450;-74
2022/12/14 13:54:18;;;;;;;16.40;10.60;;;;;;;;;;6163359;23;20152;-74
2022/12/14 13:56:43;;;;;;;15.23;10.50;;;;;;;;;;6189684;23;20148;-73
2022/12/14 13:59:21;;;;;;;13.97;10.07;;;;;;;;;;6189612;23;20391;-74
2022/12/14 14:01:46;;;;;;;13.33;9.50;;;;;;;;;;6163904;23;20152;-74
2022/12/14 14:04:14;;;;;;;13.53;10.03;;;;;;;;;;6190117;23;20364;-74
2022/12/14 14:06:43;;;;;;;16.60;10.17;;;;;;;;;;6189050;23;20196;-74
2022/12/14 14:09:27;;;;;;;15.47;10.73;;;;;;;;;;6163191;23;20399;-74
2022/12/14 14:11:59;;;;;;;16.10;10.60;;;;;;;;;;6161768;23;20382;-74
2022/12/14 14:14:24;;;;;;;15.17;10.53;;;;;;;;;;6189676;23;20359;-75
2022/12/14 14:16:53;;;;;;;14.67;10.70;;;;;;;;;;6190150;23;20399;-75
2022/12/14 14:19:21;;;;;;;15.90;10.53;;;;;;;;;;6189013;23;20653;-74
2022/12/14 14:22:05;;;;;;;19.60;12.67;;;;;;;;;;6163663;23;20421;-74
2022/12/14 14:24:49;;;;;;;18.13;11.60;;;;;;;;;;6160873;23;20387;-74
2022/12/14 14:27:19;;;;;;;15.37;10.90;;;;;;;;;;6204168;23;20418;-74
2022/12/14 14:29:48;;;;;;;16.00;10.53;;;;;;;;;;6213256;23;20363;-74
2022/12/14 14:32:26;;;;;;;18.00;12.13;;;;;;;;;;6184760;23;20387;-74
2022/12/14 14:34:51;;;;;;;19.53;12.43;;;;;;;;;;6213330;23;20386;-74
2022/12/14 14:37:16;;;;;;;18.57;11.87;;;;;;;;;;6213176;23;20830;-74
2022/12/14 14:39:42;;;;;;;19.33;12.63;;;;;;;;;;6186718;23;20151;-75
2022/12/14 14:42:15;;;;;;;16.80;11.77;;;;;;;;;;6230334;23;20148;-73
2022/12/14 14:44:49;;;;;;;16.47;11.07;;;;;;;;;;6187804;23;20174;-74
2022/12/14 14:47:25;;;;;;;16.77;11.90;;;;;;;;;;6213995;23;20426;-74
2022/12/14 14:50:17;;;;;;;15.03;10.93;;;;;;;;;;6212803;23;20339;-75
2022/12/14 14:52:42;;;;;;;20.43;13.43;;;;;;;;;;6167161;23;20424;-74
2022/12/14 14:55:26;;;;;;;19.13;12.43;;;;;;;;;;6212808;23;20461;-74
2022/12/14 14:58:03;;;;;;;18.27;12.23;;;;;;;;;;6212337;23;20219;-73
2022/12/14 15:00:38;;;;;;;18.33;11.80;;;;;;;;;;6212300;23;20359;-74
2022/12/14 15:03:05;;;;;;;16.47;12.30;;;;;;;;;;6212020;23;20352;-74
2022/12/14 15:05:32;;;;;;;19.00;13.33;;;;;;;;;;6185704;23;20473;-73
2022/12/14 15:07:58;;;;;;;16.60;12.23;;;;;;;;;;6213032;23;20470;-74
2022/12/14 15:10:27;;;;;;;17.57;12.50;;;;;;;;;;6213416;23;20402;-74
2022/12/14 15:13:04;;;;;;;19.90;13.63;;;;;;;;;;6186979;23;20185;-74
2022/12/14 15:15:46;;;;;;;22.33;14.27;;;;;;;;;;6185911;23;20394;-74
2022/12/14 15:18:16;;;;;;;18.10;12.60;;;;;;;;;;6212093;23;20387;-74
2022/12/14 15:20:52;;;;;;;17.80;12.87;;;;;;;;;;6185841;23;20383;-74
2022/12/14 15:23:18;;;;;;;19.10;12.07;;;;;;;;;;6212578;23;20354;-74
2022/12/14 15:25:43;;;;;;;19.90;12.77;;;;;;;;;;6186238;23;20423;-74
2022/12/14 15:28:16;;;;;;;18.83;12.20;;;;;;;;;;6185749;23;20187;-74
2022/12/14 15:30:45;;;;;;;16.83;11.87;;;;;;;;;;6212368;23;20124;-74
2022/12/14 15:33:16;;;;;;;17.80;12.07;;;;;;;;;;6186409;23;20390;-74
2022/12/14 15:35:41;;;;;;;20.30;13.77;;;;;;;;;;6212050;23;20359;-74
2022/12/14 15:38:18;;;;;;;17.80;12.63;;;;;;;;;;6209998;23;20917;-74
2022/12/14 15:40:54;;;;;;;17.20;12.93;;;;;;;;;;6185930;23;20152;-74
2022/12/14 15:43:21;;;;;;;18.93;13.77;;;;;;;;;;6186183;23;20855;-74
2022/12/14 15:45:48;;;;;;;21.07;14.10;;;;;;;;;;6185182;23;20758;-73
2022/12/14 15:48:24;;;;;;;19.93;13.17;;;;;;;;;;6212716;23;20386;-75
2022/12/14 15:51:08;;;;;;;20.50;13.10;;;;;;;;;;6210586;23;20363;-74
2022/12/14 15:53:46;;;;;;;17.83;12.93;;;;;;;;;;6209858;23;20850;-74
2022/12/14 15:56:29;;;;;;;19.20;13.23;;;;;;;;;;6184734;23;20390;-74
2022/12/14 15:58:59;;;;;;;19.90;13.37;;;;;;;;;;6181659;23;20457;-75
2022/12/14 16:01:36;;;;;;;19.87;14.07;;;;;;;;;;6206920;23;20375;-74
2022/12/14 16:04:04;;;;;;;24.97;14.53;;;;;;;;;;6210989;23;20354;-74
2022/12/14 16:06:30;;;;;;;23.50;16.27;;;;;;;;;;6210151;23;20415;-74
2022/12/14 16:09:05;;;;;;;20.97;14.73;;;;;;;;;;6206303;23;20379;-75
2022/12/14 16:11:42;;;;;;;18.90;14.40;;;;;;;;;;6181183;23;20366;-75
2022/12/14 16:14:18;;;;;;;23.27;15.00;;;;;;;;;;6177646;23;20371;-75
2022/12/14 16:16:44;;;;;;;28.40;17.30;;;;;;;;;;6184247;23;20402;-76
2022/12/14 16:19:15;;;;;;;23.03;15.43;;;;;;;;;;6210638;23;20395;-75
2022/12/14 16:21:42;;;;;;;22.37;15.33;;;;;;;;;;6212367;23;20356;-74
2022/12/14 16:24:21;;;;;;;20.83;14.43;;;;;;;;;;6181470;23;20486;-75
2022/12/14 16:26:54;;;;;;;22.80;14.10;;;;;;;;;;6184854;23;20431;-75
2022/12/14 16:29:21;;;;;;;19.50;13.87;;;;;;;;;;6211304;23;20387;-74
2022/12/14 16:31:47;;;;;;;21.17;13.57;;;;;;;;;;6210442;23;20364;-75
2022/12/14 16:34:14;;;;;;;24.20;16.27;;;;;;;;;;6207587;23;20387;-75
2022/12/14 16:36:39;;;;;;;22.30;14.00;;;;;;;;;;6182937;23;20385;-75
2022/12/14 16:39:06;;;;;;;23.47;16.07;;;;;;;;;;6210993;23;20402;-75